Time;durP1;ratioP1;P1;durP2;ratioP2;P2;SDS_P1;SDS_P2;PMS_P1;PMS_P2;Temp;Humidity;BMP_temperature;BMP_pressure;BME280_temperature;BME280_humidity;BME280_pressure;Samples;Min_cycle;Max_cycle;Signal;HPM_P1;HPM_P2
2021/04/03 00:00:55;;;;;;;20.80;5.03;;;;;;;;;;4954658;29;20039;-84
2021/04/03 00:03:25;;;;;;;15.27;4.55;;;;;;;;;;4954995;29;20754;-86
2021/04/03 00:05:52;;;;;;;14.10;4.53;;;;;;;;;;4956013;29;20063;-85
2021/04/03 00:08:25;;;;;;;11.18;3.67;;;;;;;;;;4954738;29;20090;-85
2021/04/03 00:10:53;;;;;;;15.35;3.97;;;;;;;;;;4956077;29;20082;-85
2021/04/03 00:13:21;;;;;;;11.32;3.97;;;;;;;;;;4954928;29;20760;-85
2021/04/03 00:15:48;;;;;;;18.30;4.15;;;;;;;;;;4954368;29;20857;-84
2021/04/03 00:18:16;;;;;;;16.30;4.60;;;;;;;;;;4954680;29;20759;-84
2021/04/03 00:20:45;;;;;;;12.82;4.40;;;;;;;;;;4954593;29;20188;-85
2021/04/03 00:23:12;;;;;;;12.60;4.47;;;;;;;;;;4955492;29;20055;-84
2021/04/03 00:25:39;;;;;;;12.82;4.55;;;;;;;;;;4953746;29;20447;-84
2021/04/03 00:28:06;;;;;;;15.07;5.03;;;;;;;;;;4954666;29;20520;-84
2021/04/03 00:30:33;;;;;;;12.82;4.40;;;;;;;;;;4955993;29;20130;-84
2021/04/03 00:33:02;;;;;;;13.40;3.70;;;;;;;;;;4954562;29;20043;-84
2021/04/03 00:35:30;;;;;;;12.10;4.00;;;;;;;;;;4956323;28;20059;-84
2021/04/03 00:37:57;;;;;;;18.00;4.50;;;;;;;;;;4954145;29;20477;-84
2021/04/03 00:40:28;;;;;;;13.90;4.80;;;;;;;;;;4949011;28;20044;-84
2021/04/03 00:42:56;;;;;;;11.27;4.40;;;;;;;;;;4954303;29;20063;-84
2021/04/03 00:45:23;;;;;;;14.68;4.75;;;;;;;;;;4956041;29;20066;-84
2021/04/03 00:47:50;;;;;;;25.38;5.88;;;;;;;;;;4954787;29;20577;-84
2021/04/03 00:50:18;;;;;;;15.00;4.32;;;;;;;;;;4954465;29;20504;-84
2021/04/03 00:52:45;;;;;;;8.32;4.00;;;;;;;;;;4953834;29;20047;-84
2021/04/03 00:55:13;;;;;;;11.85;4.35;;;;;;;;;;4954395;29;20061;-84
2021/04/03 00:57:40;;;;;;;12.10;4.32;;;;;;;;;;4954154;29;20146;-84
2021/04/03 01:00:08;;;;;;;16.48;4.93;;;;;;;;;;4953885;29;20043;-84
2021/04/03 01:02:35;;;;;;;14.27;4.70;;;;;;;;;;4954215;29;20046;-84
2021/04/03 01:05:06;;;;;;;11.38;4.25;;;;;;;;;;4954118;29;20051;-84
2021/04/03 01:07:33;;;;;;;11.70;5.00;;;;;;;;;;4954861;29;20475;-84
2021/04/03 01:10:00;;;;;;;12.40;4.20;;;;;;;;;;4954887;29;20051;-85
2021/04/03 01:12:46;;;;;;;13.95;3.92;;;;;;;;;;4954034;29;20137;-85
2021/04/03 01:15:13;;;;;;;9.95;4.60;;;;;;;;;;4953504;29;20059;-84
2021/04/03 01:17:59;;;;;;;11.55;4.28;;;;;;;;;;4955164;29;20078;-84
2021/04/03 01:20:25;;;;;;;;;;;;;;;;;;4955281;29;20047;-85
2021/04/03 01:23:15;;;;;;;13.93;4.63;;;;;;;;;;4955486;28;19926;-85
2021/04/03 01:26:00;;;;;;;12.20;4.30;;;;;;;;;;4954468;28;20158;-85
2021/04/03 01:28:36;;;;;;;12.23;4.55;;;;;;;;;;4953153;29;20402;-85
2021/04/03 01:31:03;;;;;;;12.93;4.55;;;;;;;;;;4953561;29;20142;-84
2021/04/03 01:33:30;;;;;;;12.45;4.68;;;;;;;;;;4953263;29;20087;-85
2021/04/03 01:36:05;;;;;;;15.48;4.10;;;;;;;;;;4953282;29;20147;-85
2021/04/03 01:38:33;;;;;;;28.23;5.40;;;;;;;;;;4953276;29;20743;-85
2021/04/03 01:41:01;;;;;;;15.32;4.38;;;;;;;;;;4953461;29;20333;-85
2021/04/03 01:43:31;;;;;;;12.05;4.38;;;;;;;;;;4951390;29;20561;-85
2021/04/03 01:45:58;;;;;;;12.57;3.97;;;;;;;;;;4950124;29;20531;-84
2021/04/03 01:48:26;;;;;;;13.45;5.03;;;;;;;;;;4952493;29;20078;-85
2021/04/03 01:50:53;;;;;;;11.65;4.57;;;;;;;;;;5144706;23;20057;-78
2021/04/03 01:53:20;;;;;;;23.67;5.35;;;;;;;;;;4972277;28;20554;-78
2021/04/03 01:55:48;;;;;;;24.45;5.20;;;;;;;;;;4973883;28;20125;-78
2021/04/03 01:58:15;;;;;;;12.88;4.03;;;;;;;;;;4992364;28;20081;-80
2021/04/03 02:00:45;;;;;;;10.07;4.88;;;;;;;;;;4975481;28;20463;-79
2021/04/03 02:03:12;;;;;;;13.20;4.32;;;;;;;;;;4992183;28;20085;-80
2021/04/03 02:05:40;;;;;;;9.55;3.80;;;;;;;;;;4974934;28;20687;-80
2021/04/03 02:08:07;;;;;;;9.32;4.13;;;;;;;;;;4991622;28;20058;-80
2021/04/03 02:10:34;;;;;;;10.82;3.58;;;;;;;;;;4974511;28;20180;-80
2021/04/03 02:13:01;;;;;;;15.65;3.80;;;;;;;;;;4991783;28;20617;-80
2021/04/03 02:15:29;;;;;;;16.55;4.40;;;;;;;;;;4991607;28;20074;-79
2021/04/03 02:17:57;;;;;;;16.42;4.28;;;;;;;;;;4991472;28;20078;-79
2021/04/03 02:20:25;;;;;;;14.77;4.28;;;;;;;;;;4974284;28;20085;-80
2021/04/03 02:22:52;;;;;;;11.77;4.45;;;;;;;;;;4973684;28;20054;-79
2021/04/03 02:25:18;;;;;;;14.05;4.13;;;;;;;;;;4973422;28;20191;-79
2021/04/03 02:27:46;;;;;;;12.80;3.88;;;;;;;;;;4973508;28;20141;-79
2021/04/03 02:30:15;;;;;;;7.88;3.78;;;;;;;;;;4973676;28;20109;-79
2021/04/03 02:32:47;;;;;;;12.48;3.72;;;;;;;;;;4974025;28;20053;-79
2021/04/03 02:35:15;;;;;;;22.48;4.22;;;;;;;;;;4991569;28;20050;-80
2021/04/03 02:37:42;;;;;;;16.23;4.13;;;;;;;;;;4990977;28;20101;-80
2021/04/03 02:40:11;;;;;;;11.85;4.15;;;;;;;;;;4974278;28;20444;-80
2021/04/03 02:42:44;;;;;;;13.48;4.68;;;;;;;;;;4973713;28;20050;-79
2021/04/03 02:45:16;;;;;;;12.80;4.57;;;;;;;;;;4973869;28;20172;-80
2021/04/03 02:47:45;;;;;;;11.25;4.07;;;;;;;;;;4972892;28;20090;-80
2021/04/03 02:50:17;;;;;;;18.52;4.22;;;;;;;;;;4974211;28;20089;-79
2021/04/03 02:52:45;;;;;;;13.32;3.90;;;;;;;;;;4972929;28;20050;-80
2021/04/03 02:55:13;;;;;;;12.95;4.32;;;;;;;;;;4973353;28;20501;-80
2021/04/03 02:57:41;;;;;;;16.73;4.65;;;;;;;;;;4973829;28;20050;-80
2021/04/03 03:00:09;;;;;;;14.45;4.00;;;;;;;;;;4990640;28;20050;-80
2021/04/03 03:02:36;;;;;;;25.27;5.05;;;;;;;;;;4990055;28;20054;-80
2021/04/03 03:05:04;;;;;;;9.50;4.50;;;;;;;;;;4972593;28;20051;-80
2021/04/03 03:07:33;;;;;;;14.82;3.67;;;;;;;;;;4972881;28;20487;-80
2021/04/03 03:09:59;;;;;;;17.00;3.95;;;;;;;;;;4973367;28;20074;-80
2021/04/03 03:12:28;;;;;;;13.35;3.85;;;;;;;;;;4973244;28;20054;-80
2021/04/03 03:14:55;;;;;;;10.82;4.07;;;;;;;;;;4973626;28;20084;-80
2021/04/03 03:17:22;;;;;;;45.85;15.10;;;;;;;;;;4973526;28;20054;-80
2021/04/03 03:19:50;;;;;;;13.50;4.57;;;;;;;;;;4974242;28;20122;-80
2021/04/03 03:22:18;;;;;;;12.43;4.10;;;;;;;;;;4973672;28;20054;-80
2021/04/03 03:24:45;;;;;;;14.68;4.05;;;;;;;;;;4974001;28;20058;-80
2021/04/03 03:27:12;;;;;;;16.38;3.45;;;;;;;;;;4990493;28;20054;-80
2021/04/03 03:29:39;;;;;;;8.20;3.25;;;;;;;;;;5010074;23;20039;-86
2021/04/03 03:32:06;;;;;;;11.32;3.53;;;;;;;;;;4969893;28;20047;-86
2021/04/03 03:34:34;;;;;;;9.38;3.92;;;;;;;;;;4971354;28;20078;-87
2021/04/03 03:37:01;;;;;;;12.90;3.55;;;;;;;;;;4971004;28;20055;-87
2021/04/03 03:39:28;;;;;;;11.52;3.58;;;;;;;;;;4968676;28;20082;-87
2021/04/03 03:42:01;;;;;;;6.93;3.33;;;;;;;;;;4966893;28;20054;-87
2021/04/03 03:44:28;;;;;;;14.55;3.15;;;;;;;;;;4966550;28;20141;-87
2021/04/03 03:46:55;;;;;;;7.25;3.33;;;;;;;;;;4966852;28;20397;-87
2021/04/03 03:49:21;;;;;;;13.32;3.30;;;;;;;;;;4971209;28;20047;-87
2021/04/03 03:51:48;;;;;;;9.25;3.13;;;;;;;;;;4970644;28;20054;-86
2021/04/03 03:54:15;;;;;;;14.85;3.38;;;;;;;;;;4971916;28;20090;-86
2021/04/03 03:56:42;;;;;;;10.23;2.97;;;;;;;;;;4970933;28;20058;-87
2021/04/03 03:59:10;;;;;;;8.38;3.20;;;;;;;;;;4971999;28;20652;-85
2021/04/03 04:01:36;;;;;;;15.13;3.28;;;;;;;;;;4971245;28;20125;-86
2021/04/03 04:04:03;;;;;;;8.63;2.85;;;;;;;;;;4971428;28;20081;-86
2021/04/03 04:06:30;;;;;;;13.55;2.90;;;;;;;;;;4970952;28;20047;-86
2021/04/03 04:08:59;;;;;;;5.60;2.67;;;;;;;;;;4970555;28;20082;-86
2021/04/03 04:11:26;;;;;;;10.80;2.97;;;;;;;;;;4970512;28;20547;-86
2021/04/03 04:13:53;;;;;;;10.88;2.70;;;;;;;;;;4971969;28;20110;-86
2021/04/03 04:16:23;;;;;;;7.97;2.95;;;;;;;;;;4973281;28;20071;-87
2021/04/03 04:18:49;;;;;;;7.38;2.97;;;;;;;;;;4975622;28;20150;-86
2021/04/03 04:21:17;;;;;;;7.25;2.53;;;;;;;;;;4974416;28;20392;-86
2021/04/03 04:23:45;;;;;;;8.10;2.45;;;;;;;;;;4974464;28;20444;-86
2021/04/03 04:26:12;;;;;;;7.50;2.33;;;;;;;;;;4975625;28;20535;-86
2021/04/03 04:28:48;;;;;;;11.00;2.08;;;;;;;;;;4975620;28;20429;-86
2021/04/03 04:31:15;;;;;;;8.60;2.10;;;;;;;;;;4975760;28;20777;-86
2021/04/03 04:33:41;;;;;;;7.65;2.10;;;;;;;;;;4974341;28;20078;-85
2021/04/03 04:36:08;;;;;;;5.55;1.80;;;;;;;;;;4973738;28;20062;-86
2021/04/03 04:38:35;;;;;;;9.88;2.45;;;;;;;;;;4975764;28;20124;-86
2021/04/03 04:41:01;;;;;;;10.00;2.28;;;;;;;;;;4975293;28;20047;-86
2021/04/03 04:43:28;;;;;;;7.45;2.28;;;;;;;;;;4973805;28;20043;-85
2021/04/03 04:45:56;;;;;;;15.77;7.20;;;;;;;;;;4976486;28;20139;-85
2021/04/03 04:48:25;;;;;;;12.13;5.22;;;;;;;;;;4974348;28;20640;-86
2021/04/03 04:50:52;;;;;;;11.13;3.90;;;;;;;;;;4975827;28;20082;-86
2021/04/03 04:53:19;;;;;;;9.95;2.80;;;;;;;;;;4974140;28;20090;-85
2021/04/03 04:55:45;;;;;;;9.07;4.22;;;;;;;;;;4973622;28;20138;-86
2021/04/03 04:58:13;;;;;;;8.02;2.63;;;;;;;;;;4975625;28;20054;-86
2021/04/03 05:00:40;;;;;;;5.97;2.47;;;;;;;;;;4973124;28;20097;-86
2021/04/03 05:03:06;;;;;;;7.18;1.90;;;;;;;;;;4973715;28;20042;-85
2021/04/03 05:05:33;;;;;;;9.20;2.28;;;;;;;;;;4973648;28;20051;-85
2021/04/03 05:08:00;;;;;;;10.27;2.90;;;;;;;;;;4973702;28;20059;-86
2021/04/03 05:10:26;;;;;;;7.03;1.75;;;;;;;;;;4974973;28;20129;-85
2021/04/03 05:12:53;;;;;;;8.10;2.30;;;;;;;;;;4974405;28;20094;-85
2021/04/03 05:15:19;;;;;;;9.93;2.17;;;;;;;;;;4974649;28;20054;-85
2021/04/03 05:17:46;;;;;;;7.43;1.73;;;;;;;;;;4974747;28;20102;-85
2021/04/03 05:20:13;;;;;;;10.75;2.45;;;;;;;;;;4973919;28;20093;-86
2021/04/03 05:22:47;;;;;;;7.47;2.45;;;;;;;;;;4975015;28;20078;-85
2021/04/03 05:25:14;;;;;;;8.65;2.33;;;;;;;;;;4975096;28;20109;-86
2021/04/03 05:27:41;;;;;;;9.98;2.80;;;;;;;;;;4972761;28;20055;-85
2021/04/03 05:30:08;;;;;;;6.13;2.30;;;;;;;;;;4973710;28;20078;-85
2021/04/03 05:32:35;;;;;;;9.07;2.88;;;;;;;;;;4973850;28;20062;-86
2021/04/03 05:35:03;;;;;;;14.90;2.70;;;;;;;;;;4974909;28;20059;-85
2021/04/03 05:37:46;;;;;;;7.25;2.60;;;;;;;;;;4974834;28;20118;-86
2021/04/03 05:40:32;;;;;;;6.15;2.17;;;;;;;;;;4970409;28;20497;-87
2021/04/03 05:42:59;;;;;;;12.40;2.65;;;;;;;;;;4969911;28;20055;-87
2021/04/03 05:45:27;;;;;;;9.90;2.08;;;;;;;;;;4974798;28;20105;-87
2021/04/03 05:47:55;;;;;;;9.52;2.38;;;;;;;;;;4975375;28;20050;-85
2021/04/03 05:50:22;;;;;;;7.57;2.05;;;;;;;;;;4972789;28;20058;-86
2021/04/03 05:52:50;;;;;;;6.90;1.77;;;;;;;;;;4972716;28;20148;-86
2021/04/03 05:55:29;;;;;;;9.38;1.67;;;;;;;;;;4973262;28;20174;-86
2021/04/03 05:57:58;;;;;;;6.78;1.30;;;;;;;;;;4974400;28;20059;-86
2021/04/03 06:00:37;;;;;;;7.13;1.50;;;;;;;;;;4973559;28;20101;-86
2021/04/03 06:03:04;;;;;;;5.35;1.33;;;;;;;;;;4972830;28;20079;-86
2021/04/03 06:05:31;;;;;;;3.92;1.20;;;;;;;;;;4973026;28;20079;-86
2021/04/03 06:07:58;;;;;;;3.63;0.95;;;;;;;;;;4974198;28;20086;-85
2021/04/03 06:10:26;;;;;;;11.15;1.73;;;;;;;;;;4965881;28;20198;-86
2021/04/03 06:12:59;;;;;;;2.90;1.02;;;;;;;;;;4973138;28;20082;-86
2021/04/03 06:15:30;;;;;;;5.18;1.42;;;;;;;;;;4974501;28;20389;-86
2021/04/03 06:17:57;;;;;;;5.93;1.17;;;;;;;;;;4973514;28;20054;-85
2021/04/03 06:20:36;;;;;;;4.03;1.10;;;;;;;;;;4974023;28;20117;-87
2021/04/03 06:23:09;;;;;;;8.93;1.38;;;;;;;;;;4973149;28;20101;-88
2021/04/03 06:26:05;;;;;;;5.60;1.33;;;;;;;;;;4972008;28;20086;-88
2021/04/03 06:28:31;;;;;;;;;;;;;;;;;;4941570;29;20075;-88
2021/04/03 06:31:16;;;;;;;3.70;1.27;;;;;;;;;;4965421;28;20452;-86
2021/04/03 06:33:45;;;;;;;3.00;1.02;;;;;;;;;;4965096;28;20055;-87
2021/04/03 06:36:15;;;;;;;3.03;1.20;;;;;;;;;;4975313;28;20042;-88
2021/04/03 06:38:44;;;;;;;4.97;1.85;;;;;;;;;;4973722;28;20043;-88
2021/04/03 06:41:24;;;;;;;8.88;2.35;;;;;;;;;;4972007;28;20126;-88
2021/04/03 06:44:05;;;;;;;3.85;1.27;;;;;;;;;;4973146;28;20692;-87
2021/04/03 06:46:32;;;;;;;5.25;0.95;;;;;;;;;;4971978;28;20141;-87
2021/04/03 06:48:59;;;;;;;4.07;1.33;;;;;;;;;;4972553;28;20484;-88
2021/04/03 06:51:27;;;;;;;2.55;0.98;;;;;;;;;;4971797;28;20097;-88
2021/04/03 06:53:54;;;;;;;3.13;1.60;;;;;;;;;;4960304;28;20078;-89
2021/04/03 06:56:22;;;;;;;2.63;0.90;;;;;;;;;;4972307;28;20078;-87
2021/04/03 06:58:51;;;;;;;4.80;1.30;;;;;;;;;;4959185;28;20051;-88
2021/04/03 07:01:21;;;;;;;4.60;1.00;;;;;;;;;;4961912;28;20062;-90
2021/04/03 07:03:54;;;;;;;5.65;1.38;;;;;;;;;;4973336;28;20046;-85
2021/04/03 07:06:23;;;;;;;9.00;2.40;;;;;;;;;;4973650;28;20137;-83
2021/04/03 07:08:51;;;;;;;2.90;1.42;;;;;;;;;;4974439;28;20057;-90
2021/04/03 07:11:18;;;;;;;4.75;1.45;;;;;;;;;;4974227;28;20490;-86
2021/04/03 07:13:45;;;;;;;5.13;1.27;;;;;;;;;;4972877;28;20054;-81
2021/04/03 07:16:13;;;;;;;2.92;1.45;;;;;;;;;;4973103;28;20125;-82
2021/04/03 07:18:40;;;;;;;3.13;0.90;;;;;;;;;;4973899;28;20522;-87
2021/04/03 07:21:09;;;;;;;6.30;1.10;;;;;;;;;;4973564;28;20078;-82
2021/04/03 07:23:38;;;;;;;4.22;1.63;;;;;;;;;;4974400;28;20066;-81
2021/04/03 07:26:05;;;;;;;6.35;1.35;;;;;;;;;;4973270;28;20050;-80
2021/04/03 07:28:38;;;;;;;4.03;1.10;;;;;;;;;;4972866;28;20093;-82
2021/04/03 07:31:05;;;;;;;3.13;1.00;;;;;;;;;;4974037;28;20492;-86
2021/04/03 07:33:33;;;;;;;3.92;1.35;;;;;;;;;;4972588;28;20059;-84
2021/04/03 07:36:08;;;;;;;2.20;0.85;;;;;;;;;;4973826;28;20043;-86
2021/04/03 07:38:37;;;;;;;6.27;1.33;;;;;;;;;;4973182;28;20082;-82
2021/04/03 07:41:15;;;;;;;4.00;1.38;;;;;;;;;;4972953;28;20298;-80
2021/04/03 07:43:47;;;;;;;5.22;1.20;;;;;;;;;;4973591;28;20421;-83
2021/04/03 07:46:38;;;;;;;5.03;1.27;;;;;;;;;;4972295;28;20051;-82
2021/04/03 07:49:34;;;;;;;3.78;1.23;;;;;;;;;;4967050;28;20147;-81
2021/04/03 07:52:02;;;;;;;25.50;2.92;;;;;;;;;;4973580;28;20144;-82
2021/04/03 07:54:29;;;;;;;14.10;1.95;;;;;;;;;;4975691;28;20152;-81
2021/04/03 07:56:58;;;;;;;10.23;1.55;;;;;;;;;;4975254;28;20059;-82
2021/04/03 07:59:43;;;;;;;8.43;1.48;;;;;;;;;;4975367;28;20055;-79
2021/04/03 08:02:13;;;;;;;5.28;1.20;;;;;;;;;;4973145;28;20126;-78
2021/04/03 08:04:40;;;;;;;2.05;0.73;;;;;;;;;;4976968;28;20449;-80
2021/04/03 08:07:11;;;;;;;6.15;0.90;;;;;;;;;;4977339;28;20043;-85
2021/04/03 08:09:40;;;;;;;6.10;1.50;;;;;;;;;;4977590;28;20566;-86
2021/04/03 08:12:07;;;;;;;4.70;0.77;;;;;;;;;;4975811;28;20538;-85
2021/04/03 08:14:35;;;;;;;7.13;1.38;;;;;;;;;;4976050;28;20078;-86
2021/04/03 08:17:04;;;;;;;3.60;0.70;;;;;;;;;;4975932;28;20603;-86
2021/04/03 08:19:33;;;;;;;7.70;1.35;;;;;;;;;;4976138;28;20097;-86
2021/04/03 08:22:01;;;;;;;2.65;0.70;;;;;;;;;;4975726;28;20082;-81
2021/04/03 08:24:28;;;;;;;5.05;1.38;;;;;;;;;;4975329;28;20059;-85
2021/04/03 08:27:02;;;;;;;3.80;1.10;;;;;;;;;;4976692;28;20042;-88
2021/04/03 08:29:38;;;;;;;2.55;0.95;;;;;;;;;;4976511;28;20047;-89
2021/04/03 08:32:06;;;;;;;2.92;0.95;;;;;;;;;;4974291;28;20055;-88
2021/04/03 08:34:33;;;;;;;1.90;0.85;;;;;;;;;;4974356;28;20562;-88
2021/04/03 08:37:06;;;;;;;6.32;1.40;;;;;;;;;;4975314;28;20055;-89
2021/04/03 08:39:34;;;;;;;2.42;0.85;;;;;;;;;;4974253;28;20047;-86
2021/04/03 08:42:03;;;;;;;2.25;0.77;;;;;;;;;;4974242;28;20057;-89
2021/04/03 08:44:44;;;;;;;3.97;1.00;;;;;;;;;;4975014;28;20055;-89
2021/04/03 08:47:18;;;;;;;5.22;0.95;;;;;;;;;;4974367;28;20054;-89
2021/04/03 08:49:45;;;;;;;3.83;1.05;;;;;;;;;;4975875;28;20062;-88
2021/04/03 08:52:12;;;;;;;4.72;0.80;;;;;;;;;;4975499;28;20183;-88
2021/04/03 08:54:40;;;;;;;5.80;1.10;;;;;;;;;;4974475;28;20844;-88
2021/04/03 08:57:21;;;;;;;3.22;1.15;;;;;;;;;;4974175;28;20378;-89
2021/04/03 08:59:48;;;;;;;2.78;0.80;;;;;;;;;;4974783;28;20054;-88
2021/04/03 09:02:15;;;;;;;2.45;1.10;;;;;;;;;;4973095;28;20109;-89
2021/04/03 09:04:42;;;;;;;5.95;0.90;;;;;;;;;;4974016;28;20079;-89
2021/04/03 09:07:09;;;;;;;5.65;0.88;;;;;;;;;;4973316;28;20100;-89
2021/04/03 09:09:38;;;;;;;12.23;0.90;;;;;;;;;;4973910;28;20058;-89
2021/04/03 09:12:06;;;;;;;3.22;0.90;;;;;;;;;;4974088;28;20070;-88
2021/04/03 09:14:38;;;;;;;1.98;0.90;;;;;;;;;;4974011;28;20078;-88
2021/04/03 09:17:17;;;;;;;3.05;1.10;;;;;;;;;;4974028;28;20134;-89
2021/04/03 09:19:44;;;;;;;1.98;1.00;;;;;;;;;;4975328;28;20191;-87
2021/04/03 09:22:14;;;;;;;3.17;0.60;;;;;;;;;;4974027;28;20051;-89
2021/04/03 09:24:42;;;;;;;9.27;1.00;;;;;;;;;;4973916;28;20093;-88
2021/04/03 09:27:17;;;;;;;7.07;0.70;;;;;;;;;;4975071;28;20464;-89
2021/04/03 09:29:44;;;;;;;2.88;0.80;;;;;;;;;;4973840;28;20074;-90
2021/04/03 09:32:12;;;;;;;3.22;0.70;;;;;;;;;;4974924;28;20158;-87
2021/04/03 09:34:40;;;;;;;3.97;1.23;;;;;;;;;;4974888;28;20389;-88
2021/04/03 09:37:12;;;;;;;2.63;0.65;;;;;;;;;;4974397;28;20492;-88
2021/04/03 09:39:56;;;;;;;4.38;1.08;;;;;;;;;;4974375;28;20805;-91
2021/04/03 09:42:24;;;;;;;4.75;1.10;;;;;;;;;;4974167;28;20499;-91
2021/04/03 09:44:52;;;;;;;3.40;0.90;;;;;;;;;;4975439;28;20094;-88
2021/04/03 09:47:18;;;;;;;1.70;0.80;;;;;;;;;;4975550;28;20046;-89
2021/04/03 09:49:45;;;;;;;1.77;0.60;;;;;;;;;;4975297;28;20105;-89
2021/04/03 09:52:16;;;;;;;5.28;0.82;;;;;;;;;;4974665;28;20089;-88
2021/04/03 09:54:43;;;;;;;2.65;0.50;;;;;;;;;;4974594;28;20050;-89
2021/04/03 09:57:11;;;;;;;6.70;0.70;;;;;;;;;;4973025;28;20105;-90
2021/04/03 09:59:39;;;;;;;6.15;1.38;;;;;;;;;;4972645;28;20051;-88
2021/04/03 10:02:06;;;;;;;9.45;1.38;;;;;;;;;;4973673;28;20077;-90
2021/04/03 10:04:34;;;;;;;1.88;1.30;;;;;;;;;;4974119;28;20058;-88
2021/04/03 10:07:02;;;;;;;4.85;1.20;;;;;;;;;;4972698;28;20488;-87
2021/04/03 10:09:29;;;;;;;2.25;0.70;;;;;;;;;;4974153;28;20078;-88
2021/04/03 10:11:57;;;;;;;3.08;0.60;;;;;;;;;;4974288;28;20146;-89
2021/04/03 10:14:25;;;;;;;1.83;0.50;;;;;;;;;;4973817;28;20047;-89
2021/04/03 10:16:51;;;;;;;3.42;0.75;;;;;;;;;;4973049;28;20072;-88
2021/04/03 10:19:18;;;;;;;2.78;0.70;;;;;;;;;;4972729;28;20055;-88
2021/04/03 10:21:45;;;;;;;2.45;0.90;;;;;;;;;;4972529;28;20102;-88
2021/04/03 10:24:12;;;;;;;1.70;0.60;;;;;;;;;;4972474;28;20089;-88
2021/04/03 10:26:38;;;;;;;2.00;0.80;;;;;;;;;;4972716;28;20082;-88
2021/04/03 10:29:05;;;;;;;1.90;0.63;;;;;;;;;;4973346;28;20130;-88
2021/04/03 10:31:32;;;;;;;3.85;0.50;;;;;;;;;;4972642;28;20082;-87
2021/04/03 10:33:59;;;;;;;3.50;0.77;;;;;;;;;;4972758;28;20087;-88
2021/04/03 10:36:25;;;;;;;1.63;0.50;;;;;;;;;;4973965;28;20042;-89
2021/04/03 10:38:52;;;;;;;3.53;0.30;;;;;;;;;;4975072;28;20451;-88
2021/04/03 10:41:19;;;;;;;4.85;0.82;;;;;;;;;;4974843;28;20047;-87
2021/04/03 10:43:46;;;;;;;2.35;0.50;;;;;;;;;;4973337;28;20625;-86
2021/04/03 10:46:13;;;;;;;2.22;0.80;;;;;;;;;;4973125;28;20086;-89
2021/04/03 10:48:39;;;;;;;1.23;0.57;;;;;;;;;;4972527;28;20102;-89
2021/04/03 10:51:06;;;;;;;1.25;0.75;;;;;;;;;;4972431;28;20059;-90
2021/04/03 10:53:33;;;;;;;2.00;0.50;;;;;;;;;;4974223;28;20129;-89
2021/04/03 10:56:00;;;;;;;1.85;0.55;;;;;;;;;;4973370;28;20051;-90
2021/04/03 10:58:27;;;;;;;1.80;0.65;;;;;;;;;;4971878;28;20047;-87
2021/04/03 11:01:05;;;;;;;1.90;0.70;;;;;;;;;;4970974;28;20051;-89
2021/04/03 11:03:32;;;;;;;3.22;1.20;;;;;;;;;;4971264;28;20496;-86
2021/04/03 11:05:59;;;;;;;8.38;1.40;;;;;;;;;;4971782;28;20054;-89
2021/04/03 11:08:29;;;;;;;4.68;1.98;;;;;;;;;;4972130;28;20062;-88
2021/04/03 11:10:56;;;;;;;1.25;0.75;;;;;;;;;;4971673;28;20061;-89
2021/04/03 11:13:23;;;;;;;3.83;0.75;;;;;;;;;;4973123;28;20059;-88
2021/04/03 11:15:58;;;;;;;2.05;0.82;;;;;;;;;;4971544;28;20558;-88
2021/04/03 11:18:25;;;;;;;2.33;0.90;;;;;;;;;;4973186;28;20114;-89
2021/04/03 11:20:51;;;;;;;1.40;1.00;;;;;;;;;;4973416;28;20107;-88
2021/04/03 11:23:18;;;;;;;5.43;1.58;;;;;;;;;;4971900;28;20085;-88
2021/04/03 11:25:46;;;;;;;2.67;1.70;;;;;;;;;;4974376;28;20465;-88
2021/04/03 11:28:15;;;;;;;0.98;0.70;;;;;;;;;;4976912;28;20055;-87
2021/04/03 11:30:42;;;;;;;3.53;0.90;;;;;;;;;;4975357;28;20070;-84
2021/04/03 11:33:09;;;;;;;2.05;0.50;;;;;;;;;;4977614;28;20054;-85
2021/04/03 11:35:37;;;;;;;17.95;2.47;;;;;;;;;;4963002;28;20104;-84
2021/04/03 11:38:04;;;;;;;3.63;0.40;;;;;;;;;;4976608;28;20113;-83
2021/04/03 11:40:40;;;;;;;2.75;0.47;;;;;;;;;;4984801;28;20055;-86
2021/04/03 11:43:07;;;;;;;2.47;0.60;;;;;;;;;;4978381;28;20051;-88
2021/04/03 11:45:33;;;;;;;0.60;0.22;;;;;;;;;;4978610;28;20110;-89
2021/04/03 11:48:00;;;;;;;4.22;0.63;;;;;;;;;;4975781;28;20065;-86
2021/04/03 11:50:27;;;;;;;1.30;0.60;;;;;;;;;;4976100;28;20599;-85
2021/04/03 11:52:56;;;;;;;0.68;0.30;;;;;;;;;;4977195;28;20042;-82
2021/04/03 11:55:23;;;;;;;1.67;0.50;;;;;;;;;;4976052;28;20459;-84
2021/04/03 11:57:49;;;;;;;0.73;0.45;;;;;;;;;;4977296;28;20134;-85
2021/04/03 12:00:19;;;;;;;1.63;0.55;;;;;;;;;;4975724;28;20109;-86
2021/04/03 12:02:45;;;;;;;2.42;0.80;;;;;;;;;;4975764;28;20130;-86
2021/04/03 12:05:12;;;;;;;2.40;0.85;;;;;;;;;;4976409;28;20535;-86
2021/04/03 12:07:40;;;;;;;2.03;0.80;;;;;;;;;;4976465;28;20047;-86
2021/04/03 12:10:07;;;;;;;3.30;0.60;;;;;;;;;;4975903;28;20054;-86
2021/04/03 12:12:39;;;;;;;1.65;0.57;;;;;;;;;;4975788;28;20047;-89
2021/04/03 12:15:08;;;;;;;3.78;0.63;;;;;;;;;;4955429;28;20047;-83
2021/04/03 12:17:35;;;;;;;3.40;0.82;;;;;;;;;;4956122;29;20047;-83
2021/04/03 12:20:03;;;;;;;5.93;0.50;;;;;;;;;;4956434;29;20055;-83
2021/04/03 12:22:30;;;;;;;5.47;1.27;;;;;;;;;;4956336;29;20087;-87
2021/04/03 12:24:57;;;;;;;3.38;0.85;;;;;;;;;;4975591;28;20090;-84
2021/04/03 12:27:27;;;;;;;1.48;0.70;;;;;;;;;;4976315;28;20567;-86
2021/04/03 12:29:54;;;;;;;3.08;0.60;;;;;;;;;;4976486;28;20039;-90
2021/04/03 12:32:21;;;;;;;6.18;0.90;;;;;;;;;;4977180;28;20075;-88
2021/04/03 12:34:47;;;;;;;1.33;0.50;;;;;;;;;;4975830;28;20624;-90
2021/04/03 12:37:17;;;;;;;2.47;1.05;;;;;;;;;;4974795;28;20078;-90
2021/04/03 12:39:43;;;;;;;2.83;0.82;;;;;;;;;;4977391;28;20105;-90
2021/04/03 12:42:11;;;;;;;2.45;0.63;;;;;;;;;;4975823;28;20046;-91
2021/04/03 12:44:44;;;;;;;1.35;0.40;;;;;;;;;;4975978;28;20051;-90
2021/04/03 12:47:11;;;;;;;1.17;0.50;;;;;;;;;;4975445;28;20130;-91
2021/04/03 12:49:37;;;;;;;4.30;1.08;;;;;;;;;;4972687;28;20731;-91
2021/04/03 12:52:16;;;;;;;3.80;0.68;;;;;;;;;;4970047;28;20058;-89
2021/04/03 12:54:43;;;;;;;3.03;0.57;;;;;;;;;;4974179;28;20051;-82
2021/04/03 12:57:12;;;;;;;2.95;0.60;;;;;;;;;;4971784;28;20047;-82
2021/04/03 12:59:40;;;;;;;1.27;0.70;;;;;;;;;;4974128;28;20050;-83
2021/04/03 13:02:07;;;;;;;1.75;0.88;;;;;;;;;;4973655;28;20464;-82
2021/04/03 13:04:33;;;;;;;1.33;0.52;;;;;;;;;;4972762;28;20109;-83
2021/04/03 13:07:02;;;;;;;2.78;1.17;;;;;;;;;;4972832;28;20070;-83
2021/04/03 13:09:34;;;;;;;2.75;0.70;;;;;;;;;;4973393;28;20085;-82
2021/04/03 13:12:02;;;;;;;7.35;0.70;;;;;;;;;;4974649;28;20125;-82
2021/04/03 13:14:31;;;;;;;3.28;0.55;;;;;;;;;;4973723;28;20131;-82
2021/04/03 13:16:58;;;;;;;1.83;0.70;;;;;;;;;;4972838;28;20102;-82
2021/04/03 13:19:27;;;;;;;2.92;0.90;;;;;;;;;;4972865;28;20416;-83
2021/04/03 13:21:54;;;;;;;2.10;0.57;;;;;;;;;;4973048;28;20046;-82
2021/04/03 13:24:21;;;;;;;3.60;0.80;;;;;;;;;;4972903;28;20082;-83
2021/04/03 13:26:50;;;;;;;2.03;0.57;;;;;;;;;;4972487;28;20047;-83
2021/04/03 13:29:17;;;;;;;1.33;0.50;;;;;;;;;;4972689;28;20456;-82
2021/04/03 13:31:44;;;;;;;2.85;0.65;;;;;;;;;;4973608;28;20440;-82
2021/04/03 13:34:11;;;;;;;2.72;0.47;;;;;;;;;;4974338;28;20078;-82
2021/04/03 13:36:37;;;;;;;5.13;0.70;;;;;;;;;;4972288;28;20164;-83
2021/04/03 13:39:12;;;;;;;1.17;0.40;;;;;;;;;;4973704;28;20448;-83
2021/04/03 13:41:41;;;;;;;1.20;0.47;;;;;;;;;;4973404;28;20047;-83
2021/04/03 13:44:11;;;;;;;1.70;0.90;;;;;;;;;;4974457;28;20141;-85
2021/04/03 13:46:39;;;;;;;2.22;0.50;;;;;;;;;;4974629;28;20054;-83
2021/04/03 13:49:18;;;;;;;3.38;0.73;;;;;;;;;;4972449;28;20046;-87
2021/04/03 13:51:46;;;;;;;3.22;0.80;;;;;;;;;;4973616;28;20074;-83
2021/04/03 13:54:12;;;;;;;2.17;0.60;;;;;;;;;;4972547;28;20053;-83
2021/04/03 13:56:41;;;;;;;2.60;1.05;;;;;;;;;;4972012;28;20050;-84
2021/04/03 13:59:08;;;;;;;4.53;0.93;;;;;;;;;;4972489;28;20067;-83
2021/04/03 14:01:40;;;;;;;2.92;0.73;;;;;;;;;;4972246;28;20047;-83
2021/04/03 14:04:07;;;;;;;2.88;1.10;;;;;;;;;;4972761;28;20054;-84
2021/04/03 14:06:44;;;;;;;3.05;0.90;;;;;;;;;;4971760;28;20051;-83
2021/04/03 14:09:20;;;;;;;6.28;1.20;;;;;;;;;;4972434;28;20082;-84
2021/04/03 14:11:50;;;;;;;7.20;1.33;;;;;;;;;;4965693;28;20471;-84
2021/04/03 14:14:18;;;;;;;8.25;1.15;;;;;;;;;;4973781;28;20071;-83
2021/04/03 14:16:45;;;;;;;2.53;1.00;;;;;;;;;;4968292;28;20090;-83
2021/04/03 14:19:26;;;;;;;2.13;1.00;;;;;;;;;;4973196;28;20608;-87
2021/04/03 14:21:53;;;;;;;11.57;1.40;;;;;;;;;;4973734;28;20050;-87
2021/04/03 14:24:19;;;;;;;4.28;1.70;;;;;;;;;;4973336;28;20074;-85
2021/04/03 14:26:46;;;;;;;7.38;2.90;;;;;;;;;;4973362;28;20464;-86
2021/04/03 14:29:28;;;;;;;3.05;1.80;;;;;;;;;;4973507;28;20047;-85
2021/04/03 14:31:55;;;;;;;2.00;0.98;;;;;;;;;;4973674;28;20578;-85
2021/04/03 14:34:22;;;;;;;3.20;1.15;;;;;;;;;;4972687;28;20107;-86
2021/04/03 14:36:48;;;;;;;4.65;1.48;;;;;;;;;;4972446;28;20138;-87
2021/04/03 14:39:15;;;;;;;2.33;1.08;;;;;;;;;;4972647;28;20074;-86
2021/04/03 14:41:42;;;;;;;9.05;1.70;;;;;;;;;;4972188;28;20554;-86
2021/04/03 14:44:10;;;;;;;7.03;1.50;;;;;;;;;;4972529;28;20085;-85
2021/04/03 14:46:37;;;;;;;4.60;1.75;;;;;;;;;;4972598;28;20195;-83
2021/04/03 14:49:04;;;;;;;6.85;0.98;;;;;;;;;;4974975;28;20070;-85
2021/04/03 14:51:34;;;;;;;4.10;1.23;;;;;;;;;;4971890;28;20059;-87